Time;durP1;ratioP1;P1;durP2;ratioP2;P2;SDS_P1;SDS_P2;PMS_P1;PMS_P2;Temp;Humidity;BMP_temperature;BMP_pressure;BME280_temperature;BME280_humidity;BME280_pressure;Samples;Min_cycle;Max_cycle;Signal;HPM_P1;HPM_P2
2022/03/28 00:01:28;;;;;;;19.98;5.40;;;;;;;16.99;50.54;102619.13;5004485;28;20042;-54
2022/03/28 00:03:54;;;;;;;24.70;5.77;;;;;;;16.92;50.82;102619.03;5003560;28;20046;-52
2022/03/28 00:06:19;;;;;;;24.87;5.33;;;;;;;16.86;51.50;102619.81;5000180;28;20034;-50
2022/03/28 00:08:45;;;;;;;25.10;5.07;;;;;;;16.82;52.08;102613.94;5004022;28;20040;-50
2022/03/28 00:11:10;;;;;;;16.20;4.80;;;;;;;16.83;52.27;102603.97;5004157;28;20085;-50
2022/03/28 00:13:36;;;;;;;27.43;5.63;;;;;;;16.77;52.78;102608.28;5005146;28;20094;-52
2022/03/28 00:16:03;;;;;;;35.92;5.75;;;;;;;16.53;53.81;102610.34;5003536;28;20059;-54
2022/03/28 00:18:28;;;;;;;25.17;5.03;;;;;;;16.58;54.13;102602.50;5003934;28;20053;-49
2022/03/28 00:20:55;;;;;;;26.63;5.17;;;;;;;16.52;55.09;102597.88;5004975;28;20030;-48
2022/03/28 00:23:21;;;;;;;;;;;;;;;16.55;55.42;102591.25;5000599;28;20323;-52
2022/03/28 00:25:47;;;;;;;28.70;5.35;;;;;;;16.46;56.07;102583.28;5004267;28;19921;-48
2022/03/28 00:28:14;;;;;;;28.52;4.82;;;;;;;16.41;56.70;102582.16;5003904;28;20042;-53
2022/03/28 00:30:40;;;;;;;23.33;5.45;;;;;;;16.32;57.55;102576.06;5002975;28;20027;-51
2022/03/28 00:33:06;;;;;;;27.05;6.03;;;;;;;16.19;58.99;102576.75;5004798;28;20045;-51
2022/03/28 00:35:32;;;;;;;27.77;6.10;;;;;;;16.03;60.64;102567.03;5005017;28;20050;-48
2022/03/28 00:37:57;;;;;;;28.15;6.07;;;;;;;16.22;60.16;102572.84;5003144;28;20019;-52
2022/03/28 00:40:27;;;;;;;28.60;6.18;;;;;;;16.16;60.79;102572.59;5004564;28;20026;-54
2022/03/28 00:42:53;;;;;;;27.40;5.13;;;;;;;16.23;61.05;102566.41;5004768;28;20122;-49
2022/03/28 00:45:20;;;;;;;31.83;5.87;;;;;;;16.22;61.24;102562.03;5002679;28;20034;-49
2022/03/28 00:47:46;;;;;;;21.63;4.80;;;;;;;16.15;62.36;102565.50;5002978;28;20041;-50
2022/03/28 00:50:12;;;;;;;23.77;4.78;;;;;;;16.26;61.66;102561.47;5005158;28;20035;-49
2022/03/28 00:52:39;;;;;;;34.90;6.20;;;;;;;16.01;63.64;102558.28;4985918;28;20046;-52
2022/03/28 00:55:07;;;;;;;29.08;6.13;;;;;;;16.04;63.97;102556.06;5004304;28;20026;-52
2022/03/28 00:57:33;;;;;;;25.60;5.65;;;;;;;16.04;64.12;102547.97;5004744;28;20035;-51
2022/03/28 01:00:00;;;;;;;22.67;5.25;;;;;;;16.18;63.56;102543.53;5002734;28;20038;-52
2022/03/28 01:02:25;;;;;;;23.52;4.88;;;;;;;16.14;63.71;102544.91;5004268;28;20053;-50
2022/03/28 01:04:51;;;;;;;32.13;4.90;;;;;;;16.10;64.25;102543.63;4994880;28;20033;-51
2022/03/28 01:07:18;;;;;;;32.55;5.13;;;;;;;16.06;64.84;102539.66;4978297;28;20035;-48
2022/03/28 01:09:44;;;;;;;34.27;6.53;;;;;;;16.04;65.08;102539.00;4994549;28;20035;-49
2022/03/28 01:12:10;;;;;;;23.27;4.78;;;;;;;15.95;66.46;102537.47;4994922;28;20280;-52
2022/03/28 01:14:37;;;;;;;23.50;5.53;;;;;;;16.01;66.24;102539.41;4997474;28;20042;-51
2022/03/28 01:19:54;;;;;;;26.52;4.82;;;;;;;15.86;67.55;102534.00;4998894;28;19914;-52
2022/03/28 01:22:20;;;;;;;26.50;4.90;;;;;;;15.97;66.50;102530.00;4998718;28;20046;-49
2022/03/28 01:24:47;;;;;;;30.25;4.95;;;;;;;15.92;67.26;102522.47;4998829;28;20045;-50
2022/03/28 01:27:14;;;;;;;29.02;6.45;;;;;;;15.86;67.75;102528.63;4998839;28;20075;-51
2022/03/28 01:29:44;;;;;;;26.35;5.40;;;;;;;15.85;67.70;102527.75;4998479;28;20050;-53
2022/03/28 01:32:10;;;;;;;26.67;5.85;;;;;;;15.78;68.35;102521.47;4998903;28;20030;-49
2022/03/28 01:34:35;;;;;;;23.38;5.75;;;;;;;15.77;68.29;102526.00;4998421;28;20047;-52
2022/03/28 01:37:01;;;;;;;36.97;6.00;;;;;;;15.84;67.81;102528.78;4998589;28;20034;-52
2022/03/28 01:39:26;;;;;;;25.17;5.73;;;;;;;15.67;69.38;102530.03;4990501;28;20035;-48
2022/03/28 01:41:52;;;;;;;28.43;5.50;;;;;;;15.47;71.06;102522.53;4998498;28;20050;-52
2022/03/28 01:44:18;;;;;;;24.23;6.53;;;;;;;15.61;69.73;102513.56;5016868;28;20054;-51
2022/03/28 01:46:44;;;;;;;26.60;5.97;;;;;;;15.59;69.96;102506.72;5017938;28;20097;-54
2022/03/28 01:49:11;;;;;;;28.23;5.88;;;;;;;15.70;69.06;102497.31;5018017;28;20044;-51
2022/03/28 01:51:36;;;;;;;26.05;6.05;;;;;;;15.64;69.07;102504.28;5017773;28;20042;-51
2022/03/28 01:54:02;;;;;;;29.70;6.57;;;;;;;15.57;69.92;102503.34;5017976;28;20044;-48
2022/03/28 01:56:28;;;;;;;35.80;7.60;;;;;;;15.29;71.04;102501.31;5017790;28;20069;-52
2022/03/28 01:58:54;;;;;;;33.90;7.13;;;;;;;15.34;72.45;102498.94;5017670;28;20038;-51
2022/03/28 02:01:20;;;;;;;32.38;6.43;;;;;;;15.15;74.03;102495.78;5017729;28;20110;-50
2022/03/28 02:03:46;;;;;;;25.85;6.65;;;;;;;15.34;71.89;102494.38;5017785;28;20066;-49
2022/03/28 02:06:11;;;;;;;30.57;7.33;;;;;;;15.34;72.33;102490.84;5017938;28;20102;-51
2022/03/28 02:08:38;;;;;;;22.70;6.23;;;;;;;15.32;72.46;102491.03;5033617;28;20283;-51
2022/03/28 02:11:03;;;;;;;28.65;6.35;;;;;;;15.36;72.03;102490.66;5017662;28;20042;-50
2022/03/28 02:13:29;;;;;;;28.33;7.77;;;;;;;15.29;72.99;102480.63;5000483;28;20051;-48
2022/03/28 02:15:54;;;;;;;33.97;7.80;;;;;;;15.29;72.93;102487.84;5000637;28;20284;-50
2022/03/28 02:18:20;;;;;;;30.20;7.17;;;;;;;15.27;72.59;102481.81;5017403;28;20038;-49
2022/03/28 02:20:45;;;;;;;41.33;7.73;;;;;;;15.18;73.92;102487.31;5017184;28;20053;-48
2022/03/28 02:23:11;;;;;;;35.80;9.18;;;;;;;15.20;73.54;102481.72;5017405;28;20049;-53
2022/03/28 02:25:38;;;;;;;25.47;7.30;;;;;;;15.21;73.68;102480.69;5017179;28;20045;-52
2022/03/28 02:28:04;;;;;;;35.22;8.88;;;;;;;15.15;73.84;102476.06;5017182;28;20284;-49
2022/03/28 02:30:31;;;;;;;40.60;8.18;;;;;;;15.14;73.69;102479.78;5017025;28;20042;-51
2022/03/28 02:32:57;;;;;;;28.10;7.93;;;;;;;15.10;73.92;102473.91;5017086;28;20030;-51
2022/03/28 02:35:22;;;;;;;35.28;7.55;;;;;;;14.99;74.80;102464.47;5017180;28;20114;-51
2022/03/28 02:37:48;;;;;;;33.70;7.28;;;;;;;14.99;74.86;102464.47;5007787;28;20045;-49
2022/03/28 02:40:14;;;;;;;27.65;6.88;;;;;;;14.93;75.70;102458.97;5019711;28;20038;-51
2022/03/28 02:42:39;;;;;;;40.97;9.37;;;;;;;14.89;76.36;102453.09;5016482;28;20054;-49
2022/03/28 02:45:06;;;;;;;38.80;7.35;;;;;;;14.88;76.18;102452.28;5016883;28;20046;-51
2022/03/28 02:47:31;;;;;;;32.50;7.82;;;;;;;14.91;75.76;102440.28;5016935;28;20031;-53
2022/03/28 02:49:57;;;;;;;30.03;7.87;;;;;;;14.84;76.85;102447.44;5016992;28;20089;-51
2022/03/28 02:52:23;;;;;;;31.42;7.00;;;;;;;14.81;77.33;102440.56;5016654;28;20031;-50
2022/03/28 02:54:48;;;;;;;39.70;9.10;;;;;;;14.80;77.47;102422.72;5016828;28;20065;-50
2022/03/28 02:57:14;;;;;;;34.17;7.65;;;;;;;14.68;78.44;102430.41;5016838;28;20034;-51
2022/03/28 02:59:40;;;;;;;39.08;9.63;;;;;;;14.68;78.74;102429.56;5016865;28;20038;-49
2022/03/28 03:02:06;;;;;;;42.47;8.55;;;;;;;14.58;80.27;102425.28;5016693;28;20041;-51
2022/03/28 03:04:32;;;;;;;29.87;8.63;;;;;;;14.62;80.04;102436.53;5016490;28;20042;-51
2022/03/28 03:06:58;;;;;;;26.60;7.90;;;;;;;14.52;80.79;102436.78;5016522;28;20030;-50
2022/03/28 03:09:25;;;;;;;35.47;7.82;;;;;;;14.53;81.22;102434.91;5016452;28;20101;-49
2022/03/28 03:11:51;;;;;;;29.67;8.18;;;;;;;14.43;81.96;102433.31;5016299;28;20034;-49
2022/03/28 03:14:17;;;;;;;25.75;7.47;;;;;;;14.41;82.43;102429.97;5016380;28;20038;-53
2022/03/28 03:16:43;;;;;;;29.70;8.98;;;;;;;14.28;83.87;102425.22;5016204;28;20099;-50
2022/03/28 03:19:09;;;;;;;26.73;8.18;;;;;;;14.41;82.65;102418.38;5016421;28;20046;-52
2022/03/28 03:21:36;;;;;;;31.17;9.55;;;;;;;15.01;77.93;102419.31;5016232;28;20054;-55
2022/03/28 03:24:02;;;;;;;24.55;8.38;;;;;;;14.43;81.24;102417.19;5016300;28;20038;-52
2022/03/28 03:26:28;;;;;;;;;;;;;;;14.23;83.35;102405.25;5015619;28;20045;-51
2022/03/28 03:28:55;;;;;;;30.92;9.82;;;;;;;14.18;84.17;102413.84;5016078;28;19921;-52
2022/03/28 03:31:22;;;;;;;33.28;8.48;;;;;;;14.24;84.45;102409.59;5016036;28;20062;-50
2022/03/28 03:33:48;;;;;;;35.30;9.02;;;;;;;14.13;85.89;102408.19;5015821;28;20041;-52
2022/03/28 03:36:13;;;;;;;33.03;8.80;;;;;;;14.12;85.59;102404.66;5015480;28;20095;-51
2022/03/28 03:38:38;;;;;;;38.50;8.70;;;;;;;14.13;85.68;102408.19;5015486;28;20045;-54
2022/03/28 03:41:04;;;;;;;44.67;9.20;;;;;;;13.93;88.73;102413.22;5015857;28;20042;-49
2022/03/28 03:43:30;;;;;;;26.90;9.00;;;;;;;13.97;88.23;102411.84;5006116;28;20066;-49
2022/03/28 03:45:56;;;;;;;48.87;9.70;;;;;;;13.88;89.25;102406.53;5008722;28;20038;-50
2022/03/28 03:48:22;;;;;;;27.02;8.02;;;;;;;13.85;89.78;102398.81;4999039;28;20030;-50
2022/03/28 03:50:47;;;;;;;35.80;9.17;;;;;;;13.79;90.51;102404.06;5011842;28;20035;-51
2022/03/28 03:53:13;;;;;;;23.10;8.47;;;;;;;13.73;91.32;102390.34;5003024;28;20288;-47
2022/03/28 03:55:39;;;;;;;39.85;9.93;;;;;;;13.80;90.36;102395.00;5005081;28;20047;-52
2022/03/28 03:58:05;;;;;;;35.58;10.93;;;;;;;13.65;92.14;102386.88;5010201;28;20143;-50
2022/03/28 04:00:31;;;;;;;41.50;9.27;;;;;;;13.72;91.74;102383.25;4999148;28;20043;-51
2022/03/28 04:02:57;;;;;;;33.23;10.93;;;;;;;13.80;90.83;102381.56;5010894;28;20045;-49
2022/03/28 04:05:22;;;;;;;44.43;11.33;;;;;;;13.73;91.26;102374.22;5004199;28;20034;-50
2022/03/28 04:07:47;;;;;;;34.00;10.37;;;;;;;13.82;90.96;102385.72;5003888;28;20038;-52
2022/03/28 04:10:13;;;;;;;38.88;12.13;;;;;;;13.77;90.65;102380.03;5010790;28;20042;-49
2022/03/28 04:12:39;;;;;;;29.67;10.67;;;;;;;13.80;90.65;102384.25;4999155;28;20042;-49
2022/03/28 04:15:05;;;;;;;44.90;12.57;;;;;;;13.73;91.65;102370.66;5009581;28;20681;-48
2022/03/28 04:17:42;;;;;;;35.97;10.45;;;;;;;13.87;89.83;102377.13;5005002;28;20038;-51
2022/03/28 04:20:09;;;;;;;36.25;10.20;;;;;;;13.68;91.40;102375.75;5000927;28;20038;-52
2022/03/28 04:22:34;;;;;;;33.05;10.68;;;;;;;13.67;92.35;102372.22;5011312;28;20042;-49
2022/03/28 04:25:00;;;;;;;35.40;11.17;;;;;;;13.76;90.79;102373.00;4995668;28;20046;-52
2022/03/28 04:27:25;;;;;;;28.95;9.60;;;;;;;13.65;92.94;102370.72;5004117;28;20061;-51
2022/03/28 04:29:51;;;;;;;38.37;10.57;;;;;;;13.59;93.49;102361.53;5003057;28;20039;-52
2022/03/28 04:32:16;;;;;;;38.93;12.37;;;;;;;13.70;92.54;102368.34;5010946;28;20027;-52
2022/03/28 04:34:42;;;;;;;39.10;10.60;;;;;;;13.67;92.19;102358.78;4998878;28;20034;-52
2022/03/28 04:37:07;;;;;;;31.23;10.27;;;;;;;13.67;92.04;102364.16;5008991;28;20063;-51
2022/03/28 04:39:33;;;;;;;39.93;10.70;;;;;;;13.56;93.45;102368.09;5004991;28;20034;-50
2022/03/28 04:41:59;;;;;;;34.28;10.93;;;;;;;13.59;92.96;102359.66;5001835;28;20035;-51
2022/03/28 04:44:24;;;;;;;43.77;9.83;;;;;;;13.60;93.04;102363.19;5014518;28;20073;-53
2022/03/28 04:46:49;;;;;;;33.20;10.10;;;;;;;13.58;92.78;102367.91;4997775;28;20064;-48
2022/03/28 04:49:15;;;;;;;39.25;11.18;;;;;;;13.65;91.91;102371.56;5009515;28;20035;-55
2022/03/28 04:51:41;;;;;;;34.60;9.77;;;;;;;13.46;95.11;102368.31;5015078;28;20046;-49
2022/03/28 04:54:07;;;;;;;30.77;10.75;;;;;;;13.41;95.09;102362.59;4997685;28;20042;-51
2022/03/28 04:56:34;;;;;;;41.50;10.27;;;;;;;13.43;94.33;102374.03;5014766;28;20051;-53
2022/03/28 04:59:02;;;;;;;38.42;12.23;;;;;;;13.36;95.01;102369.50;4998070;28;20030;-52
2022/03/28 05:01:27;;;;;;;33.55;10.73;;;;;;;13.38;95.23;102356.72;5014592;28;20038;-52
2022/03/28 05:03:53;;;;;;;40.42;10.68;;;;;;;13.46;94.02;102356.75;4997552;28;20038;-51
2022/03/28 05:06:18;;;;;;;41.47;9.10;;;;;;;13.51;93.20;102348.97;4997685;28;20046;-54
2022/03/28 05:08:44;;;;;;;30.70;9.48;;;;;;;13.27;95.73;102366.88;5014459;28;20117;-50
2022/03/28 05:11:10;;;;;;;33.17;8.73;;;;;;;13.32;95.40;102361.00;5012976;28;20034;-51
2022/03/28 05:13:35;;;;;;;35.00;9.17;;;;;;;13.28;95.40;102373.94;5014411;28;20038;-47
2022/03/28 05:16:02;;;;;;;35.30;10.25;;;;;;;13.25;95.34;102382.34;5014396;28;20046;-49
2022/03/28 05:18:27;;;;;;;24.42;10.65;;;;;;;13.14;96.85;102385.41;5011680;28;20038;-49
2022/03/28 05:20:52;;;;;;;33.63;10.17;;;;;;;13.09;97.03;102385.09;5017633;28;20034;-51
2022/03/28 05:23:18;;;;;;;31.27;11.10;;;;;;;13.10;97.37;102381.41;5014334;28;20046;-52
2022/03/28 05:25:43;;;;;;;34.20;10.83;;;;;;;13.05;97.12;102377.38;5014556;28;20034;-50
2022/03/28 05:28:09;;;;;;;23.10;9.33;;;;;;;13.03;97.30;102368.66;4997423;28;20057;-53
2022/03/28 05:30:35;;;;;;;37.70;11.57;;;;;;;13.00;97.77;102365.47;5014190;28;20319;-53
2022/03/28 05:33:01;;;;;;;40.35;11.25;;;;;;;13.04;97.18;102362.28;5014687;28;20085;-49
2022/03/28 05:35:27;;;;;;;36.57;10.03;;;;;;;13.02;96.84;102356.25;5023074;28;20033;-53
2022/03/28 05:37:53;;;;;;;32.22;9.80;;;;;;;12.97;98.19;102345.22;5021742;28;20268;-54
2022/03/28 05:40:19;;;;;;;36.83;10.33;;;;;;;12.99;98.34;102343.19;5014022;28;20073;-48
2022/03/28 05:42:44;;;;;;;40.00;10.40;;;;;;;13.02;97.42;102341.97;5014163;28;20061;-49
2022/03/28 05:45:12;;;;;;;33.05;9.77;;;;;;;12.95;98.17;102344.53;5014495;28;20060;-54
2022/03/28 05:47:38;;;;;;;29.38;10.00;;;;;;;13.02;97.29;102350.88;5014252;28;20445;-53
2022/03/28 05:50:04;;;;;;;35.92;11.57;;;;;;;13.05;96.61;102347.03;5014317;28;20034;-52
2022/03/28 05:52:30;;;;;;;33.08;10.43;;;;;;;13.06;96.08;102356.75;5014115;28;20046;-52
2022/03/28 05:54:55;;;;;;;30.20;10.00;;;;;;;13.05;95.98;102361.28;5014200;28;20030;-53
2022/03/28 05:57:21;;;;;;;36.37;11.60;;;;;;;13.08;95.93;102353.88;5014267;28;20050;-50
2022/03/28 05:59:46;;;;;;;28.47;10.53;;;;;;;13.16;94.89;102351.16;5015332;28;20102;-50
2022/03/28 06:02:12;;;;;;;25.77;10.17;;;;;;;13.22;94.39;102342.41;5017774;28;20042;-52
2022/03/28 06:04:38;;;;;;;42.70;10.60;;;;;;;13.19;93.95;102345.44;5017468;28;20042;-51
2022/03/28 06:07:03;;;;;;;39.47;10.77;;;;;;;13.30;92.63;102342.34;5017294;28;20094;-51
2022/03/28 06:09:29;;;;;;;25.30;10.48;;;;;;;13.34;91.78;102340.16;5017441;28;20066;-51
2022/03/28 06:11:55;;;;;;;33.45;10.18;;;;;;;13.27;91.80;102331.94;5017614;28;20034;-51
2022/03/28 06:14:20;;;;;;;32.47;10.57;;;;;;;13.13;93.85;102343.44;5000112;28;20050;-50
2022/03/28 06:16:45;;;;;;;31.03;11.57;;;;;;;13.23;92.95;102343.22;5027857;28;20065;-52
2022/03/28 06:19:11;;;;;;;27.83;9.77;;;;;;;13.24;91.99;102343.06;5017455;28;20038;-51
2022/03/28 06:21:36;;;;;;;32.03;10.47;;;;;;;13.30;91.87;102336.16;5000397;28;20098;-53
2022/03/28 06:24:02;;;;;;;21.93;9.97;;;;;;;13.30;91.72;102339.66;5017133;28;20041;-50
2022/03/28 06:26:28;;;;;;;27.83;10.82;;;;;;;13.38;91.29;102340.63;5017068;28;20292;-53
2022/03/28 06:28:53;;;;;;;40.83;10.50;;;;;;;13.39;90.70;102339.63;5017206;28;20038;-52
2022/03/28 06:31:19;;;;;;;36.83;9.87;;;;;;;13.36;90.18;102338.13;5017002;28;20085;-52
2022/03/28 06:33:44;;;;;;;21.17;8.20;;;;;;;13.26;91.69;102340.19;5017184;28;20038;-50
2022/03/28 06:36:09;;;;;;;28.83;9.10;;;;;;;13.37;90.44;102326.34;4999953;28;20030;-51
2022/03/28 06:38:35;;;;;;;27.50;9.93;;;;;;;13.32;90.80;102323.38;5016787;28;20038;-52
2022/03/28 06:41:01;;;;;;;26.25;8.93;;;;;;;13.29;91.11;102329.09;5016616;28;20026;-49
2022/03/28 06:43:27;;;;;;;27.60;8.40;;;;;;;13.43;89.94;102325.66;5016543;28;20137;-51
2022/03/28 06:45:53;;;;;;;28.70;8.67;;;;;;;13.60;88.07;102336.31;5016655;28;20066;-53
2022/03/28 06:48:19;;;;;;;23.75;8.63;;;;;;;13.64;86.95;102334.94;5016750;28;20109;-51
2022/03/28 06:50:45;;;;;;;29.65;9.90;;;;;;;13.68;86.43;102333.56;5016544;28;20030;-54
2022/03/28 06:53:12;;;;;;;17.98;7.13;;;;;;;13.82;85.61;102323.03;5016794;28;20034;-49
2022/03/28 06:55:37;;;;;;;26.27;9.23;;;;;;;13.93;84.36;102324.47;5016543;28;20042;-52
2022/03/28 06:58:03;;;;;;;24.17;8.10;;;;;;;14.11;82.57;102327.69;5016710;28;20042;-50
2022/03/28 07:00:28;;;;;;;25.87;8.67;;;;;;;14.16;81.60;102324.41;5016394;28;20044;-52
2022/03/28 07:02:54;;;;;;;19.97;8.00;;;;;;;14.13;81.50;102325.63;5016398;28;20102;-50
2022/03/28 07:05:19;;;;;;;27.77;9.00;;;;;;;14.28;80.67;102328.34;5016000;28;20106;-53
2022/03/28 07:07:47;;;;;;;28.58;8.93;;;;;;;14.27;80.12;102321.28;5015978;28;20034;-51
2022/03/28 07:10:19;;;;;;;28.30;8.30;;;;;;;14.17;82.06;102324.25;5015381;28;20034;-49
2022/03/28 07:12:44;;;;;;;24.27;8.60;;;;;;;14.18;82.25;102325.06;5013878;28;20049;-53
2022/03/28 07:15:12;;;;;;;26.03;8.93;;;;;;;14.16;83.02;102330.66;5015756;28;20041;-51
2022/03/28 07:17:56;;;;;;;32.35;9.63;;;;;;;14.28;82.56;102322.13;5015750;28;20038;-50
2022/03/28 07:20:23;;;;;;;23.50;8.80;;;;;;;14.29;82.23;102318.41;5015701;28;20038;-51
2022/03/28 07:22:50;;;;;;;28.55;8.75;;;;;;;14.38;81.90;102322.69;5016691;28;20720;-49
2022/03/28 07:25:15;;;;;;;25.95;9.70;;;;;;;14.39;82.48;102315.44;5015536;28;20050;-50
2022/03/28 07:27:41;;;;;;;22.47;9.77;;;;;;;14.53;82.01;102320.00;5012960;28;20037;-49
2022/03/28 07:30:08;;;;;;;25.95;10.27;;;;;;;14.52;81.95;102312.94;5015027;28;20030;-48
2022/03/28 07:32:34;;;;;;;28.52;9.18;;;;;;;14.34;84.87;102311.44;5015436;28;20030;-48
2022/03/28 07:35:00;;;;;;;29.02;11.25;;;;;;;14.63;82.82;102308.97;5015382;28;20038;-52
2022/03/28 07:37:26;;;;;;;29.98;10.27;;;;;;;14.83;80.46;102311.09;5015152;28;20069;-51
2022/03/28 07:39:52;;;;;;;22.40;9.25;;;;;;;14.83;80.34;102308.41;5015327;28;20030;-50
2022/03/28 07:42:17;;;;;;;35.85;12.18;;;;;;;14.80;80.27;102309.63;5015704;28;20042;-49
2022/03/28 07:44:44;;;;;;;26.15;9.27;;;;;;;15.01;79.26;102310.69;5014928;28;20037;-49
2022/03/28 07:47:10;;;;;;;32.05;10.68;;;;;;;15.04;80.01;102311.16;5014893;28;20046;-51
2022/03/28 07:49:37;;;;;;;26.58;10.00;;;;;;;15.23;78.30;102308.91;5015375;28;20050;-53
2022/03/28 07:52:04;;;;;;;33.92;10.52;;;;;;;15.44;76.27;102301.81;5014634;28;20035;-50
2022/03/28 07:54:31;;;;;;;30.65;10.68;;;;;;;15.51;75.85;102299.19;5014327;28;20048;-51
2022/03/28 07:56:56;;;;;;;;;;;;;;;15.55;75.76;102292.38;4982150;28;20038;-50
2022/03/28 07:59:23;;;;;;;33.33;11.30;;;;;;;15.77;74.71;102293.22;5014273;28;19923;-53
2022/03/28 08:01:50;;;;;;;31.73;11.65;;;;;;;15.85;74.37;102295.75;5015752;28;20044;-52
2022/03/28 08:04:15;;;;;;;33.53;12.13;;;;;;;15.96;73.78;102288.22;5014342;28;20046;-51
2022/03/28 08:06:41;;;;;;;30.27;11.37;;;;;;;16.05;72.64;102289.72;5014290;28;20038;-55
2022/03/28 08:09:06;;;;;;;31.47;12.27;;;;;;;16.19;72.01;102296.91;5014219;28;20041;-51
2022/03/28 08:11:32;;;;;;;28.67;10.98;;;;;;;15.84;70.73;102299.50;5014292;28;20038;-49
2022/03/28 08:13:58;;;;;;;33.30;11.73;;;;;;;16.23;71.54;102299.19;5014171;28;20101;-51
2022/03/28 08:16:23;;;;;;;31.40;11.17;;;;;;;16.49;69.03;102299.34;5014471;28;20283;-51
2022/03/28 08:18:48;;;;;;;27.03;11.40;;;;;;;16.51;69.03;102291.06;5013873;28;20046;-52
2022/03/28 08:21:14;;;;;;;38.80;12.70;;;;;;;16.67;68.81;102292.59;5020912;28;20496;-48
2022/03/28 08:23:40;;;;;;;27.37;12.07;;;;;;;16.70;68.17;102289.47;5024249;28;20053;-52
2022/03/28 08:26:05;;;;;;;31.97;13.03;;;;;;;16.79;68.24;102290.16;5014976;28;20271;-50
2022/03/28 08:28:32;;;;;;;35.60;12.97;;;;;;;16.94;67.07;102295.38;5014869;28;20054;-51
2022/03/28 08:30:58;;;;;;;34.25;12.65;;;;;;;17.05;66.40;102294.00;4997526;28;20324;-49
2022/03/28 08:33:23;;;;;;;35.23;11.83;;;;;;;17.25;65.86;102288.63;5014877;28;20045;-50
2022/03/28 08:35:48;;;;;;;30.13;13.47;;;;;;;17.52;64.09;102275.16;5014837;28;20303;-53
2022/03/28 08:38:15;;;;;;;32.40;11.60;;;;;;;17.63;63.46;102279.94;5014583;28;20066;-50
2022/03/28 08:40:42;;;;;;;34.47;11.90;;;;;;;17.88;62.58;102270.38;5014094;28;20038;-52
2022/03/28 08:43:08;;;;;;;34.70;13.57;;;;;;;17.97;61.88;102274.53;5014378;28;20054;-50
2022/03/28 08:45:36;;;;;;;26.90;11.55;;;;;;;18.15;59.19;102271.19;5014140;28;20045;-51
2022/03/28 08:48:04;;;;;;;32.77;11.97;;;;;;;18.41;57.84;102266.75;5014443;28;20061;-54
2022/03/28 08:50:30;;;;;;;25.83;11.03;;;;;;;18.65;56.55;102272.50;5014378;28;20264;-53
2022/03/28 08:52:55;;;;;;;32.37;12.23;;;;;;;18.67;55.68;102273.09;5014264;28;20271;-52
2022/03/28 08:55:22;;;;;;;38.50;12.30;;;;;;;19.00;54.33;102271.31;5014267;28;20049;-50
2022/03/28 08:57:47;;;;;;;23.97;9.60;;;;;;;18.86;52.39;102281.38;5014507;28;20042;-51
2022/03/28 09:00:13;;;;;;;30.17;12.17;;;;;;;19.44;52.77;102285.84;5014331;28;20300;-50
2022/03/28 09:02:41;;;;;;;27.73;12.23;;;;;;;19.91;49.60;102274.63;5013965;28;20042;-51
2022/03/28 09:05:08;;;;;;;31.47;12.40;;;;;;;20.45;48.88;102284.13;5014187;28;20034;-53
2022/03/28 09:07:34;;;;;;;29.90;10.40;;;;;;;20.49;47.60;102279.88;5014063;28;20291;-56
2022/03/28 09:10:02;;;;;;;29.10;12.50;;;;;;;20.48;48.19;102275.50;5014481;28;20283;-51
2022/03/28 09:12:28;;;;;;;28.27;11.67;;;;;;;21.52;45.15;102273.66;5012909;28;20041;-51
2022/03/28 09:15:03;;;;;;;37.30;11.73;;;;;;;21.79;44.02;102281.41;5014062;28;20271;-51
2022/03/28 09:17:28;;;;;;;31.30;13.10;;;;;;;22.61;42.75;102279.66;5014295;28;20044;-53
2022/03/28 09:20:02;;;;;;;23.95;11.35;;;;;;;23.03;41.41;102270.34;5014232;28;20303;-50
2022/03/28 09:22:29;;;;;;;21.47;9.47;;;;;;;23.67;38.61;102270.34;5014083;28;20038;-52
2022/03/28 09:25:02;;;;;;;27.03;13.00;;;;;;;24.43;38.23;102275.22;4998469;28;20038;-53
2022/03/28 09:27:37;;;;;;;27.77;12.20;;;;;;;25.15;37.21;102274.41;5014331;28;20054;-53
2022/03/28 09:30:09;;;;;;;25.83;12.83;;;;;;;25.51;36.26;102266.50;5014229;28;20042;-52
2022/03/28 09:32:42;;;;;;;30.27;12.80;;;;;;;25.68;35.40;102268.25;5013794;28;20102;-50
2022/03/28 09:35:12;;;;;;;30.50;13.30;;;;;;;26.30;34.82;102261.22;5015765;28;20030;-49
2022/03/28 09:38:04;;;;;;;30.40;12.47;;;;;;;26.85;33.76;102257.28;5017675;28;20049;-52
2022/03/28 09:40:34;;;;;;;25.37;12.30;;;;;;;27.26;32.75;102256.47;5017755;28;20113;-51
2022/03/28 09:43:01;;;;;;;26.70;12.77;;;;;;;27.53;32.28;102264.47;5017081;28;20053;-51
2022/03/28 09:45:31;;;;;;;24.13;11.97;;;;;;;27.91;31.67;102253.94;5020581;28;20106;-50
2022/03/28 09:48:02;;;;;;;29.13;13.17;;;;;;;27.89;31.04;102261.63;5025378;28;20050;-51
2022/03/28 09:50:30;;;;;;;27.90;12.37;;;;;;;28.46;31.23;102260.59;5017670;28;20102;-52
2022/03/28 09:52:56;;;;;;;26.77;12.53;;;;;;;28.84;30.66;102262.91;5001553;28;20069;-52
2022/03/28 09:55:21;;;;;;;;;;;;;;;29.41;30.08;102254.19;5017763;28;20038;-49
2022/03/28 09:57:46;;;;;;;26.50;11.93;;;;;;;29.81;29.29;102260.41;5017431;28;19976;-50
2022/03/28 10:00:19;;;;;;;;;;;;;;;29.87;28.85;102255.63;5017886;28;20042;-53
2022/03/28 10:02:46;;;;;;;26.60;13.07;;;;;;;30.18;28.52;102249.78;5017131;28;19913;-51
2022/03/28 10:05:12;;;;;;;34.43;13.43;;;;;;;30.39;28.26;102250.31;5018750;28;20053;-55
2022/03/28 10:07:37;;;;;;;28.93;12.07;;;;;;;30.42;28.00;102249.72;5027725;28;20046;-51
2022/03/28 10:10:05;;;;;;;25.73;12.77;;;;;;;30.86;27.40;102249.66;5017262;28;20057;-53
2022/03/28 10:12:30;;;;;;;37.13;15.53;;;;;;;31.07;27.16;102247.41;5016919;28;20030;-53
2022/03/28 10:14:57;;;;;;;26.67;13.53;;;;;;;31.21;27.16;102241.94;5016939;28;20098;-52
2022/03/28 10:17:24;;;;;;;25.45;12.60;;;;;;;31.54;26.51;102236.34;5015057;28;20034;-54
2022/03/28 10:19:50;;;;;;;34.47;16.77;;;;;;;31.62;26.15;102226.53;5008314;28;20030;-55
2022/03/28 10:22:21;;;;;;;38.55;16.67;;;;;;;31.69;26.28;102231.66;5017020;28;20041;-56
2022/03/28 10:24:50;;;;;;;27.20;15.27;;;;;;;32.02;25.58;102234.31;5016880;28;20038;-51
2022/03/28 10:27:16;;;;;;;32.95;17.63;;;;;;;32.39;25.46;102226.09;5017040;28;20030;-55
2022/03/28 10:29:43;;;;;;;23.58;13.95;;;;;;;31.90;26.05;102226.56;5017262;28;20148;-56
2022/03/28 10:32:20;;;;;;;29.67;14.40;;;;;;;31.98;26.00;102219.47;5016457;28;20052;-54
2022/03/28 10:34:51;;;;;;;;;;;;;;;32.01;25.06;102219.69;5016850;28;20058;-53
2022/03/28 10:37:28;;;;;;;33.78;15.18;;;;;;;32.83;24.56;102221.69;5016682;28;19918;-54
2022/03/28 10:40:19;;;;;;;30.15;15.52;;;;;;;33.37;23.52;102222.84;5016668;28;20102;-54
2022/03/28 10:42:52;;;;;;;28.00;14.32;;;;;;;33.79;23.55;102225.31;4996149;28;20086;-51
2022/03/28 10:45:19;;;;;;;27.45;13.00;;;;;;;34.06;23.59;102223.47;5015183;28;20037;-50
2022/03/28 10:47:53;;;;;;;27.63;14.63;;;;;;;33.87;23.18;102233.66;5016238;28;20038;-54
2022/03/28 10:50:34;;;;;;;34.08;15.85;;;;;;;34.35;22.88;102220.03;5016711;28;20093;-55
2022/03/28 10:53:18;;;;;;;28.65;16.08;;;;;;;34.43;22.50;102213.69;5001358;28;20052;-54
2022/03/28 10:55:56;;;;;;;36.90;17.70;;;;;;;34.85;22.19;102213.19;5016521;28;20038;-54
2022/03/28 10:58:35;;;;;;;34.28;16.73;;;;;;;35.55;21.89;102206.63;5016408;28;20038;-55
2022/03/28 11:01:11;;;;;;;28.77;17.83;;;;;;;35.85;21.34;102203.81;5001133;28;20038;-56
2022/03/28 11:03:59;;;;;;;26.45;15.90;;;;;;;35.95;21.32;102204.56;5016097;28;20053;-56
2022/03/28 11:06:46;;;;;;;29.00;15.02;;;;;;;36.05;20.76;102198.66;5016086;28;20034;-55
2022/03/28 11:09:12;;;;;;;;;;;;;;;36.10;20.60;102195.66;5003083;28;20034;-55
2022/03/28 11:11:56;;;;;;;27.92;14.48;;;;;;;36.55;20.32;102187.75;5011621;28;19940;-54
2022/03/28 11:14:45;;;;;;;61.38;18.05;;;;;;;37.00;20.24;102189.75;5016062;28;20046;-52
2022/03/28 11:17:23;;;;;;;29.70;14.95;;;;;;;37.19;20.15;102185.59;5002174;28;20023;-55